Ogden Dunes, Indiana
Current Conditions -  °F | °C
As of 4:56 PM on Friday 19 Dec 2014 (Local Time) from KVPZ Reporting Station
Overcast Overcast  
Wind Chill: 31°   Ceiling: 3000
Heat Index: 31°   Visibility: 10mi
Dew Point: 23°   Wind: 3mph
Humidity: 72%   Direction: 270°W
Pressure: 30.32"   Gusts: NA
Location:  41.5825°N, 87.1726°W
Report Text: KVPZ 192256Z AUTO 27003KT 10SM OVC030 M01/M05 A3032 RMK AO2 SLP277 T10061050 TSNO
Loading
Personal Weather Stations






























Interactive Weather Map New forecast layout! Learn more

10-Day Weather Forecast

Advertisements
Track Severe Weather on mobile